MDPP/POP METAR and TAF weather

Enter ICAO airport designator
Station Type Date Time Source
MDPP METAR 2019/10/14 03:00 UTC NOAA

MDPP 140300Z 00000KT 9999 FEW017 26/24 Q1014


Station Type Date Time Source
MDPP Decoded METAR 2019/10/14 03:00 UTC NOAA

Puerto Plata International, Dominican Republic (MDPP) 19-45N 070-33W
Oct 13, 2019 - 11:00 PM EDT / 2019.10.14 0300 UTC
Wind: Calm:0
Visibility: greater than 7 mile(s):0
Sky conditions: mostly clear
Temperature: 78 F (26 C)
Dew Point: 75 F (24 C)
Relative Humidity: 88%
Pressure (altimeter): 29.94 in. Hg (1014 hPa)
ob: MDPP 140300Z 00000KT 9999 FEW017 26/24 Q1014
cycle: 3

Station Type Date Time Source
MDPP TAF 2019/10/14 06:15 UTC NOAA

TAF MDPP 140400Z 1406/1506 00000KT 9999 SCT016
BECMG 1412/1414 12008KT

Example: see airport list